SAWH/USH METAR and TAF weather

Enter ICAO airport designator
Station Type Date Time Source
SAWH METAR 2019/12/09 06:00 UTC NOAA

SAWH 090600Z 00000KT 9999 VCSH BKN045 BKN060 07/06 Q0986


Station Type Date Time Source
SAWH Decoded METAR 2019/12/09 06:00 UTC NOAA

Ushuaia Aerodrome, Argentina (SAWH) 54-48S 068-19W 14M
Dec 09, 2019 - 01:00 AM EST / 2019.12.09 0600 UTC
Wind: Calm:0
Visibility: greater than 7 mile(s):0
Sky conditions: mostly cloudy
Weather: showers in the vicinity
Temperature: 44 F (7 C)
Dew Point: 42 F (6 C)
Relative Humidity: 93%
Pressure (altimeter): 29.12 in. Hg (0986 hPa)
ob: SAWH 090600Z 00000KT 9999 VCSH BKN045 BKN060 07/06 Q0986
cycle: 6

Station Type Date Time Source
SAWH TAF 2019/12/09 06:27 UTC NOAA

TAF SAWH 090500Z 0906/1006 VRB05KT 9000 -RA SCT020 BKN030 OVC050 TX12/0918Z TN05/0910Z
BECMG 0910/0912 32010KT 9999
BECMG 0916/0918 25010G20KT
BECMG 1001/1003 25025G35KT -RA BKN020

Example: see airport list